sensor_id;sensor_type;location;lat;lon;timestamp;P1;durP1;ratioP1;P2;durP2;ratioP2
37483;SDS011;23337;52.212;9.926;2023-07-29T00:00:56;1.50;;;1.40;;
37483;SDS011;23337;52.212;9.926;2023-07-29T00:03:22;2.03;;;1.10;;
37483;SDS011;23337;52.212;9.926;2023-07-29T00:05:48;1.83;;;1.20;;
37483;SDS011;23337;52.212;9.926;2023-07-29T00:08:14;1.47;;;1.33;;
37483;SDS011;23337;52.212;9.926;2023-07-29T00:10:40;1.83;;;1.20;;
37483;SDS011;23337;52.212;9.926;2023-07-29T00:13:07;1.93;;;1.67;;
37483;SDS011;23337;52.212;9.926;2023-07-29T00:15:33;3.00;;;1.33;;
37483;SDS011;23337;52.212;9.926;2023-07-29T00:17:59;1.30;;;1.20;;
37483;SDS011;23337;52.212;9.926;2023-07-29T00:20:25;1.47;;;1.30;;
37483;SDS011;23337;52.212;9.926;2023-07-29T00:22:51;1.40;;;1.30;;
37483;SDS011;23337;52.212;9.926;2023-07-29T00:25:19;3.13;;;1.50;;
37483;SDS011;23337;52.212;9.926;2023-07-29T00:27:45;2.67;;;1.50;;
37483;SDS011;23337;52.212;9.926;2023-07-29T00:30:11;1.40;;;1.30;;
37483;SDS011;23337;52.212;9.926;2023-07-29T00:32:37;1.10;;;1.10;;
37483;SDS011;23337;52.212;9.926;2023-07-29T00:35:03;1.93;;;1.30;;
37483;SDS011;23337;52.212;9.926;2023-07-29T00:37:29;2.63;;;1.53;;
37483;SDS011;23337;52.212;9.926;2023-07-29T00:39:56;1.47;;;1.37;;
37483;SDS011;23337;52.212;9.926;2023-07-29T00:42:23;1.40;;;1.30;;
37483;SDS011;23337;52.212;9.926;2023-07-29T00:44:49;1.40;;;1.30;;
37483;SDS011;23337;52.212;9.926;2023-07-29T00:47:15;1.90;;;1.43;;
37483;SDS011;23337;52.212;9.926;2023-07-29T00:49:44;2.10;;;1.30;;
37483;SDS011;23337;52.212;9.926;2023-07-29T00:52:11;2.60;;;2.03;;
37483;SDS011;23337;52.212;9.926;2023-07-29T00:54:38;1.80;;;1.70;;
37483;SDS011;23337;52.212;9.926;2023-07-29T00:57:04;1.17;;;1.07;;
37483;SDS011;23337;52.212;9.926;2023-07-29T00:59:30;1.70;;;1.60;;
37483;SDS011;23337;52.212;9.926;2023-07-29T01:01:57;1.60;;;1.50;;
37483;SDS011;23337;52.212;9.926;2023-07-29T01:04:23;1.57;;;1.47;;
37483;SDS011;23337;52.212;9.926;2023-07-29T01:07:03;2.43;;;1.30;;
37483;SDS011;23337;52.212;9.926;2023-07-29T01:12:11;1.40;;;1.30;;
37483;SDS011;23337;52.212;9.926;2023-07-29T01:14:41;1.33;;;1.20;;
37483;SDS011;23337;52.212;9.926;2023-07-29T01:17:09;1.70;;;1.47;;
37483;SDS011;23337;52.212;9.926;2023-07-29T01:22:22;1.30;;;1.20;;
37483;SDS011;23337;52.212;9.926;2023-07-29T01:24:49;2.50;;;1.20;;
37483;SDS011;23337;52.212;9.926;2023-07-29T01:27:15;2.13;;;1.57;;
37483;SDS011;23337;52.212;9.926;2023-07-29T01:29:41;2.43;;;1.30;;
37483;SDS011;23337;52.212;9.926;2023-07-29T01:32:10;1.30;;;1.20;;
37483;SDS011;23337;52.212;9.926;2023-07-29T01:34:53;1.00;;;0.90;;
37483;SDS011;23337;52.212;9.926;2023-07-29T01:37:22;1.03;;;0.97;;
37483;SDS011;23337;52.212;9.926;2023-07-29T01:39:51;1.40;;;1.30;;
37483;SDS011;23337;52.212;9.926;2023-07-29T01:42:20;1.23;;;1.13;;
37483;SDS011;23337;52.212;9.926;2023-07-29T01:44:46;1.40;;;1.30;;
37483;SDS011;23337;52.212;9.926;2023-07-29T01:47:12;2.13;;;1.40;;
37483;SDS011;23337;52.212;9.926;2023-07-29T01:49:38;1.40;;;1.30;;
37483;SDS011;23337;52.212;9.926;2023-07-29T01:52:04;2.00;;;1.37;;
37483;SDS011;23337;52.212;9.926;2023-07-29T01:54:30;2.27;;;1.23;;
37483;SDS011;23337;52.212;9.926;2023-07-29T01:56:56;1.60;;;1.50;;
37483;SDS011;23337;52.212;9.926;2023-07-29T01:59:22;6.30;;;1.80;;
37483;SDS011;23337;52.212;9.926;2023-07-29T02:01:48;1.57;;;1.10;;
37483;SDS011;23337;52.212;9.926;2023-07-29T02:04:14;1.67;;;1.57;;
37483;SDS011;23337;52.212;9.926;2023-07-29T02:06:40;2.20;;;1.47;;
37483;SDS011;23337;52.212;9.926;2023-07-29T02:09:06;1.63;;;1.10;;
37483;SDS011;23337;52.212;9.926;2023-07-29T02:11:32;1.30;;;1.20;;
37483;SDS011;23337;52.212;9.926;2023-07-29T02:13:58;1.03;;;0.93;;
37483;SDS011;23337;52.212;9.926;2023-07-29T02:16:24;1.30;;;1.20;;
37483;SDS011;23337;52.212;9.926;2023-07-29T02:18:50;0.90;;;0.80;;
37483;SDS011;23337;52.212;9.926;2023-07-29T02:21:16;2.70;;;1.10;;
37483;SDS011;23337;52.212;9.926;2023-07-29T02:23:42;1.63;;;1.00;;
37483;SDS011;23337;52.212;9.926;2023-07-29T02:26:08;1.10;;;1.00;;
37483;SDS011;23337;52.212;9.926;2023-07-29T02:28:34;1.13;;;0.97;;
37483;SDS011;23337;52.212;9.926;2023-07-29T02:33:35;1.03;;;1.00;;
37483;SDS011;23337;52.212;9.926;2023-07-29T02:36:01;1.77;;;1.10;;
37483;SDS011;23337;52.212;9.926;2023-07-29T02:38:27;1.00;;;0.90;;
37483;SDS011;23337;52.212;9.926;2023-07-29T02:40:53;0.93;;;0.90;;
37483;SDS011;23337;52.212;9.926;2023-07-29T02:43:19;0.93;;;0.93;;
37483;SDS011;23337;52.212;9.926;2023-07-29T02:45:45;1.33;;;0.70;;
37483;SDS011;23337;52.212;9.926;2023-07-29T02:48:11;1.10;;;1.10;;
37483;SDS011;23337;52.212;9.926;2023-07-29T02:50:37;1.53;;;0.80;;
37483;SDS011;23337;52.212;9.926;2023-07-29T02:53:03;4.57;;;1.07;;
37483;SDS011;23337;52.212;9.926;2023-07-29T02:55:29;1.40;;;1.30;;
37483;SDS011;23337;52.212;9.926;2023-07-29T02:57:55;1.27;;;1.17;;
37483;SDS011;23337;52.212;9.926;2023-07-29T03:00:21;0.93;;;0.87;;
37483;SDS011;23337;52.212;9.926;2023-07-29T03:02:47;1.80;;;1.10;;
37483;SDS011;23337;52.212;9.926;2023-07-29T03:05:13;2.47;;;1.10;;
37483;SDS011;23337;52.212;9.926;2023-07-29T03:07:39;0.80;;;0.80;;
37483;SDS011;23337;52.212;9.926;2023-07-29T03:10:05;1.37;;;1.17;;
37483;SDS011;23337;52.212;9.926;2023-07-29T03:12:31;1.93;;;1.10;;
37483;SDS011;23337;52.212;9.926;2023-07-29T03:14:57;2.00;;;1.20;;
37483;SDS011;23337;52.212;9.926;2023-07-29T03:17:25;3.37;;;1.10;;
37483;SDS011;23337;52.212;9.926;2023-07-29T03:19:51;1.93;;;1.40;;
37483;SDS011;23337;52.212;9.926;2023-07-29T03:22:18;1.10;;;1.10;;
37483;SDS011;23337;52.212;9.926;2023-07-29T03:24:44;1.10;;;1.00;;
37483;SDS011;23337;52.212;9.926;2023-07-29T03:27:10;1.37;;;1.27;;
37483;SDS011;23337;52.212;9.926;2023-07-29T03:29:36;2.17;;;1.20;;
37483;SDS011;23337;52.212;9.926;2023-07-29T03:32:02;2.70;;;1.20;;
37483;SDS011;23337;52.212;9.926;2023-07-29T03:34:28;1.43;;;1.33;;
37483;SDS011;23337;52.212;9.926;2023-07-29T03:36:54;1.50;;;1.40;;
37483;SDS011;23337;52.212;9.926;2023-07-29T03:39:20;1.13;;;0.90;;
37483;SDS011;23337;52.212;9.926;2023-07-29T03:41:46;1.47;;;1.37;;
37483;SDS011;23337;52.212;9.926;2023-07-29T03:44:12;1.30;;;1.20;;
37483;SDS011;23337;52.212;9.926;2023-07-29T03:46:38;1.20;;;1.10;;
37483;SDS011;23337;52.212;9.926;2023-07-29T03:49:04;1.23;;;1.10;;
37483;SDS011;23337;52.212;9.926;2023-07-29T03:51:30;1.30;;;1.20;;
37483;SDS011;23337;52.212;9.926;2023-07-29T03:53:56;1.73;;;1.63;;
37483;SDS011;23337;52.212;9.926;2023-07-29T03:56:22;1.20;;;1.10;;
37483;SDS011;23337;52.212;9.926;2023-07-29T03:58:48;1.67;;;1.30;;
37483;SDS011;23337;52.212;9.926;2023-07-29T04:01:14;1.27;;;1.17;;
37483;SDS011;23337;52.212;9.926;2023-07-29T04:03:40;3.10;;;1.20;;
37483;SDS011;23337;52.212;9.926;2023-07-29T04:06:06;1.20;;;1.10;;
37483;SDS011;23337;52.212;9.926;2023-07-29T04:08:32;1.40;;;1.20;;
37483;SDS011;23337;52.212;9.926;2023-07-29T04:10:58;1.30;;;1.17;;
37483;SDS011;23337;52.212;9.926;2023-07-29T04:13:24;1.43;;;1.13;;
37483;SDS011;23337;52.212;9.926;2023-07-29T04:15:50;2.90;;;1.40;;
37483;SDS011;23337;52.212;9.926;2023-07-29T04:18:16;1.30;;;1.20;;
37483;SDS011;23337;52.212;9.926;2023-07-29T04:20:42;1.30;;;1.03;;
37483;SDS011;23337;52.212;9.926;2023-07-29T04:23:08;1.20;;;1.10;;
37483;SDS011;23337;52.212;9.926;2023-07-29T04:25:34;1.00;;;1.00;;
37483;SDS011;23337;52.212;9.926;2023-07-29T04:28:00;1.77;;;1.10;;
37483;SDS011;23337;52.212;9.926;2023-07-29T04:30:28;1.90;;;1.20;;
37483;SDS011;23337;52.212;9.926;2023-07-29T04:32:54;1.93;;;1.10;;
37483;SDS011;23337;52.212;9.926;2023-07-29T04:35:20;1.77;;;1.10;;
37483;SDS011;23337;52.212;9.926;2023-07-29T04:37:46;1.13;;;1.03;;
37483;SDS011;23337;52.212;9.926;2023-07-29T04:40:13;1.87;;;1.20;;
37483;SDS011;23337;52.212;9.926;2023-07-29T04:42:39;1.33;;;1.20;;
37483;SDS011;23337;52.212;9.926;2023-07-29T04:45:05;1.50;;;1.37;;
37483;SDS011;23337;52.212;9.926;2023-07-29T04:47:31;1.63;;;1.30;;
37483;SDS011;23337;52.212;9.926;2023-07-29T04:49:57;1.53;;;1.30;;
37483;SDS011;23337;52.212;9.926;2023-07-29T04:52:23;1.50;;;1.30;;
37483;SDS011;23337;52.212;9.926;2023-07-29T04:54:49;3.07;;;1.33;;
37483;SDS011;23337;52.212;9.926;2023-07-29T04:57:15;1.40;;;1.30;;
37483;SDS011;23337;52.212;9.926;2023-07-29T04:59:41;1.30;;;1.20;;
37483;SDS011;23337;52.212;9.926;2023-07-29T05:02:07;3.50;;;1.47;;
37483;SDS011;23337;52.212;9.926;2023-07-29T05:04:33;2.53;;;1.70;;
37483;SDS011;23337;52.212;9.926;2023-07-29T05:06:59;1.60;;;1.50;;
37483;SDS011;23337;52.212;9.926;2023-07-29T05:09:24;2.00;;;1.20;;
37483;SDS011;23337;52.212;9.926;2023-07-29T05:11:50;1.60;;;1.50;;
37483;SDS011;23337;52.212;9.926;2023-07-29T05:14:17;1.67;;;1.57;;
37483;SDS011;23337;52.212;9.926;2023-07-29T05:16:43;1.93;;;1.30;;
37483;SDS011;23337;52.212;9.926;2023-07-29T05:19:09;2.00;;;1.33;;
37483;SDS011;23337;52.212;9.926;2023-07-29T05:21:36;1.27;;;1.17;;
37483;SDS011;23337;52.212;9.926;2023-07-29T05:24:02;1.87;;;1.20;;
37483;SDS011;23337;52.212;9.926;2023-07-29T05:26:28;2.83;;;1.50;;
37483;SDS011;23337;52.212;9.926;2023-07-29T05:28:54;1.37;;;1.20;;
37483;SDS011;23337;52.212;9.926;2023-07-29T05:31:20;1.83;;;1.20;;
37483;SDS011;23337;52.212;9.926;2023-07-29T05:33:46;1.57;;;1.40;;
37483;SDS011;23337;52.212;9.926;2023-07-29T05:36:12;2.03;;;1.20;;
37483;SDS011;23337;52.212;9.926;2023-07-29T05:38:38;4.03;;;1.60;;
37483;SDS011;23337;52.212;9.926;2023-07-29T05:41:04;2.37;;;1.33;;
37483;SDS011;23337;52.212;9.926;2023-07-29T05:43:30;2.00;;;1.67;;
37483;SDS011;23337;52.212;9.926;2023-07-29T05:45:56;2.27;;;1.50;;
37483;SDS011;23337;52.212;9.926;2023-07-29T05:48:22;1.40;;;1.30;;
37483;SDS011;23337;52.212;9.926;2023-07-29T05:50:48;3.10;;;1.47;;
37483;SDS011;23337;52.212;9.926;2023-07-29T05:53:14;2.53;;;1.30;;
37483;SDS011;23337;52.212;9.926;2023-07-29T05:55:40;3.23;;;1.17;;
37483;SDS011;23337;52.212;9.926;2023-07-29T05:58:06;3.07;;;1.37;;
37483;SDS011;23337;52.212;9.926;2023-07-29T06:00:32;1.47;;;1.33;;
37483;SDS011;23337;52.212;9.926;2023-07-29T06:02:58;2.53;;;1.67;;
37483;SDS011;23337;52.212;9.926;2023-07-29T06:05:24;1.40;;;1.30;;
37483;SDS011;23337;52.212;9.926;2023-07-29T06:07:50;7.13;;;1.40;;
37483;SDS011;23337;52.212;9.926;2023-07-29T06:10:16;3.23;;;1.27;;
37483;SDS011;23337;52.212;9.926;2023-07-29T06:12:45;4.27;;;1.50;;
37483;SDS011;23337;52.212;9.926;2023-07-29T06:15:11;3.23;;;2.07;;
37483;SDS011;23337;52.212;9.926;2023-07-29T06:17:38;2.20;;;1.50;;
37483;SDS011;23337;52.212;9.926;2023-07-29T06:20:04;1.23;;;1.17;;
37483;SDS011;23337;52.212;9.926;2023-07-29T06:22:30;2.83;;;1.67;;
37483;SDS011;23337;52.212;9.926;2023-07-29T06:24:56;1.30;;;1.20;;
37483;SDS011;23337;52.212;9.926;2023-07-29T06:27:23;2.37;;;1.43;;
37483;SDS011;23337;52.212;9.926;2023-07-29T06:29:50;2.33;;;1.50;;
37483;SDS011;23337;52.212;9.926;2023-07-29T06:32:16;3.40;;;1.50;;
37483;SDS011;23337;52.212;9.926;2023-07-29T06:34:42;2.40;;;1.70;;
37483;SDS011;23337;52.212;9.926;2023-07-29T06:37:08;2.27;;;1.43;;
37483;SDS011;23337;52.212;9.926;2023-07-29T06:39:34;3.53;;;1.70;;
37483;SDS011;23337;52.212;9.926;2023-07-29T06:42:00;2.60;;;2.30;;
37483;SDS011;23337;52.212;9.926;2023-07-29T06:44:27;2.40;;;1.47;;
37483;SDS011;23337;52.212;9.926;2023-07-29T06:46:53;1.33;;;1.27;;
37483;SDS011;23337;52.212;9.926;2023-07-29T06:49:18;1.50;;;1.40;;
37483;SDS011;23337;52.212;9.926;2023-07-29T06:51:44;4.03;;;1.50;;
37483;SDS011;23337;52.212;9.926;2023-07-29T06:54:10;2.23;;;1.77;;
37483;SDS011;23337;52.212;9.926;2023-07-29T06:56:36;1.40;;;1.30;;
37483;SDS011;23337;52.212;9.926;2023-07-29T06:59:02;2.40;;;1.37;;
37483;SDS011;23337;52.212;9.926;2023-07-29T07:01:28;4.60;;;1.23;;
37483;SDS011;23337;52.212;9.926;2023-07-29T07:03:54;1.53;;;1.10;;
37483;SDS011;23337;52.212;9.926;2023-07-29T07:06:23;1.43;;;1.30;;
37483;SDS011;23337;52.212;9.926;2023-07-29T07:08:49;1.10;;;0.97;;
37483;SDS011;23337;52.212;9.926;2023-07-29T07:11:15;1.70;;;0.70;;
37483;SDS011;23337;52.212;9.926;2023-07-29T07:13:41;1.27;;;1.00;;
37483;SDS011;23337;52.212;9.926;2023-07-29T07:16:07;1.10;;;0.90;;
37483;SDS011;23337;52.212;9.926;2023-07-29T07:18:33;0.70;;;0.70;;
37483;SDS011;23337;52.212;9.926;2023-07-29T07:20:59;1.30;;;0.60;;
37483;SDS011;23337;52.212;9.926;2023-07-29T07:23:25;0.40;;;0.40;;
37483;SDS011;23337;52.212;9.926;2023-07-29T07:25:51;0.70;;;0.70;;
37483;SDS011;23337;52.212;9.926;2023-07-29T07:28:17;0.93;;;0.70;;
37483;SDS011;23337;52.212;9.926;2023-07-29T07:30:43;1.00;;;0.60;;
37483;SDS011;23337;52.212;9.926;2023-07-29T07:33:09;0.77;;;0.77;;
37483;SDS011;23337;52.212;9.926;2023-07-29T07:35:35;2.17;;;0.90;;
37483;SDS011;23337;52.212;9.926;2023-07-29T07:38:01;0.67;;;0.67;;
37483;SDS011;23337;52.212;9.926;2023-07-29T07:40:29;0.93;;;0.60;;
37483;SDS011;23337;52.212;9.926;2023-07-29T07:42:55;1.70;;;0.53;;
37483;SDS011;23337;52.212;9.926;2023-07-29T07:45:21;1.73;;;0.90;;
37483;SDS011;23337;52.212;9.926;2023-07-29T07:47:46;1.77;;;0.50;;
37483;SDS011;23337;52.212;9.926;2023-07-29T07:50:13;2.10;;;0.80;;
37483;SDS011;23337;52.212;9.926;2023-07-29T07:52:39;1.23;;;0.83;;
37483;SDS011;23337;52.212;9.926;2023-07-29T07:55:05;0.97;;;0.60;;
37483;SDS011;23337;52.212;9.926;2023-07-29T07:57:31;0.97;;;0.50;;
37483;SDS011;23337;52.212;9.926;2023-07-29T07:59:57;0.73;;;0.50;;
37483;SDS011;23337;52.212;9.926;2023-07-29T08:02:23;0.63;;;0.50;;
37483;SDS011;23337;52.212;9.926;2023-07-29T08:04:49;0.67;;;0.67;;
37483;SDS011;23337;52.212;9.926;2023-07-29T08:07:15;0.80;;;0.67;;
37483;SDS011;23337;52.212;9.926;2023-07-29T08:09:41;0.70;;;0.50;;
37483;SDS011;23337;52.212;9.926;2023-07-29T08:12:07;1.30;;;0.90;;
37483;SDS011;23337;52.212;9.926;2023-07-29T08:14:33;0.60;;;0.60;;
37483;SDS011;23337;52.212;9.926;2023-07-29T08:16:59;2.20;;;0.50;;
37483;SDS011;23337;52.212;9.926;2023-07-29T08:19:25;0.50;;;0.50;;
37483;SDS011;23337;52.212;9.926;2023-07-29T08:21:51;1.37;;;0.60;;
37483;SDS011;23337;52.212;9.926;2023-07-29T08:24:17;1.83;;;0.53;;
37483;SDS011;23337;52.212;9.926;2023-07-29T08:26:43;2.00;;;0.50;;
37483;SDS011;23337;52.212;9.926;2023-07-29T08:29:08;0.60;;;0.60;;
37483;SDS011;23337;52.212;9.926;2023-07-29T08:31:34;0.80;;;0.80;;
37483;SDS011;23337;52.212;9.926;2023-07-29T08:34:00;1.67;;;1.00;;
37483;SDS011;23337;52.212;9.926;2023-07-29T08:36:26;1.07;;;0.97;;
37483;SDS011;23337;52.212;9.926;2023-07-29T08:38:52;0.93;;;0.93;;
37483;SDS011;23337;52.212;9.926;2023-07-29T08:41:25;1.20;;;1.10;;
37483;SDS011;23337;52.212;9.926;2023-07-29T08:43:59;2.87;;;1.10;;
37483;SDS011;23337;52.212;9.926;2023-07-29T08:46:25;0.83;;;0.83;;
37483;SDS011;23337;52.212;9.926;2023-07-29T08:48:51;1.67;;;1.00;;
37483;SDS011;23337;52.212;9.926;2023-07-29T08:51:17;1.00;;;1.00;;
37483;SDS011;23337;52.212;9.926;2023-07-29T08:53:45;1.50;;;1.00;;
37483;SDS011;23337;52.212;9.926;2023-07-29T08:56:11;2.20;;;1.30;;
37483;SDS011;23337;52.212;9.926;2023-07-29T08:58:37;0.90;;;0.90;;
37483;SDS011;23337;52.212;9.926;2023-07-29T09:01:05;2.47;;;1.10;;
37483;SDS011;23337;52.212;9.926;2023-07-29T09:03:31;1.93;;;1.50;;
37483;SDS011;23337;52.212;9.926;2023-07-29T09:05:57;1.60;;;1.50;;
37483;SDS011;23337;52.212;9.926;2023-07-29T09:08:24;1.30;;;1.20;;
37483;SDS011;23337;52.212;9.926;2023-07-29T09:10:51;1.30;;;1.20;;
37483;SDS011;23337;52.212;9.926;2023-07-29T09:13:17;1.40;;;1.30;;
37483;SDS011;23337;52.212;9.926;2023-07-29T09:15:43;1.50;;;1.40;;
37483;SDS011;23337;52.212;9.926;2023-07-29T09:18:10;1.50;;;1.40;;
37483;SDS011;23337;52.212;9.926;2023-07-29T09:20:36;2.10;;;1.60;;
37483;SDS011;23337;52.212;9.926;2023-07-29T09:23:02;1.60;;;1.50;;
37483;SDS011;23337;52.212;9.926;2023-07-29T09:25:29;1.70;;;1.60;;
37483;SDS011;23337;52.212;9.926;2023-07-29T09:27:58;1.93;;;1.50;;
37483;SDS011;23337;52.212;9.926;2023-07-29T09:30:25;1.80;;;1.70;;
37483;SDS011;23337;52.212;9.926;2023-07-29T09:32:55;2.33;;;1.63;;
37483;SDS011;23337;52.212;9.926;2023-07-29T09:35:21;2.30;;;1.70;;
37483;SDS011;23337;52.212;9.926;2023-07-29T09:37:47;5.20;;;2.27;;
37483;SDS011;23337;52.212;9.926;2023-07-29T09:40:14;2.40;;;2.20;;
37483;SDS011;23337;52.212;9.926;2023-07-29T09:42:47;2.70;;;2.60;;
37483;SDS011;23337;52.212;9.926;2023-07-29T09:45:18;3.20;;;2.97;;
37483;SDS011;23337;52.212;9.926;2023-07-29T09:47:45;3.37;;;3.17;;
37483;SDS011;23337;52.212;9.926;2023-07-29T09:50:11;3.57;;;3.30;;
37483;SDS011;23337;52.212;9.926;2023-07-29T09:52:37;3.60;;;3.40;;
37483;SDS011;23337;52.212;9.926;2023-07-29T09:55:04;4.60;;;4.20;;
37483;SDS011;23337;52.212;9.926;2023-07-29T09:57:31;4.60;;;4.20;;
37483;SDS011;23337;52.212;9.926;2023-07-29T09:59:57;5.13;;;4.73;;
37483;SDS011;23337;52.212;9.926;2023-07-29T10:02:23;6.33;;;5.83;;
37483;SDS011;23337;52.212;9.926;2023-07-29T10:04:52;6.47;;;5.97;;
37483;SDS011;23337;52.212;9.926;2023-07-29T10:07:19;7.57;;;6.97;;
37483;SDS011;23337;52.212;9.926;2023-07-29T10:09:45;8.03;;;7.43;;
37483;SDS011;23337;52.212;9.926;2023-07-29T10:12:11;9.80;;;8.80;;
37483;SDS011;23337;52.212;9.926;2023-07-29T10:14:38;9.40;;;8.53;;
37483;SDS011;23337;52.212;9.926;2023-07-29T10:17:05;9.97;;;9.03;;
37483;SDS011;23337;52.212;9.926;2023-07-29T10:19:31;11.30;;;10.30;;
37483;SDS011;23337;52.212;9.926;2023-07-29T10:21:58;9.70;;;8.80;;
37483;SDS011;23337;52.212;9.926;2023-07-29T10:24:29;8.90;;;8.10;;
37483;SDS011;23337;52.212;9.926;2023-07-29T10:26:59;10.47;;;9.60;;
37483;SDS011;23337;52.212;9.926;2023-07-29T10:29:31;9.50;;;8.70;;
37483;SDS011;23337;52.212;9.926;2023-07-29T10:32:01;9.50;;;8.70;;
37483;SDS011;23337;52.212;9.926;2023-07-29T10:34:30;7.73;;;7.13;;
37483;SDS011;23337;52.212;9.926;2023-07-29T10:36:57;7.43;;;6.83;;
37483;SDS011;23337;52.212;9.926;2023-07-29T10:39:24;8.13;;;7.53;;
37483;SDS011;23337;52.212;9.926;2023-07-29T10:41:58;7.20;;;6.63;;
37483;SDS011;23337;52.212;9.926;2023-07-29T10:47:24;6.77;;;6.17;;
37483;SDS011;23337;52.212;9.926;2023-07-29T10:49:55;6.43;;;5.93;;
37483;SDS011;23337;52.212;9.926;2023-07-29T10:54:59;6.53;;;5.57;;
37483;SDS011;23337;52.212;9.926;2023-07-29T10:57:33;6.27;;;5.67;;
37483;SDS011;23337;52.212;9.926;2023-07-29T10:59:59;5.57;;;4.90;;
37483;SDS011;23337;52.212;9.926;2023-07-29T11:02:35;5.17;;;4.70;;
37483;SDS011;23337;52.212;9.926;2023-07-29T11:05:05;5.67;;;5.17;;
37483;SDS011;23337;52.212;9.926;2023-07-29T11:07:31;5.53;;;5.03;;
37483;SDS011;23337;52.212;9.926;2023-07-29T11:10:08;5.67;;;5.17;;
37483;SDS011;23337;52.212;9.926;2023-07-29T11:15:04;4.00;;;3.70;;
37483;SDS011;23337;52.212;9.926;2023-07-29T11:17:31;4.67;;;4.37;;
37483;SDS011;23337;52.212;9.926;2023-07-29T11:20:01;4.57;;;4.27;;
37483;SDS011;23337;52.212;9.926;2023-07-29T11:22:28;5.37;;;4.57;;
37483;SDS011;23337;52.212;9.926;2023-07-29T11:24:54;4.47;;;4.17;;
37483;SDS011;23337;52.212;9.926;2023-07-29T11:27:20;4.90;;;4.40;;
37483;SDS011;23337;52.212;9.926;2023-07-29T11:29:46;4.50;;;4.03;;
37483;SDS011;23337;52.212;9.926;2023-07-29T11:32:13;4.30;;;3.97;;
37483;SDS011;23337;52.212;9.926;2023-07-29T11:34:40;3.90;;;3.60;;
37483;SDS011;23337;52.212;9.926;2023-07-29T11:37:06;4.20;;;3.37;;
37483;SDS011;23337;52.212;9.926;2023-07-29T11:39:32;2.50;;;2.30;;
37483;SDS011;23337;52.212;9.926;2023-07-29T11:41:58;2.90;;;2.70;;
37483;SDS011;23337;52.212;9.926;2023-07-29T11:44:24;2.60;;;2.40;;
37483;SDS011;23337;52.212;9.926;2023-07-29T11:46:50;2.33;;;2.13;;
37483;SDS011;23337;52.212;9.926;2023-07-29T11:49:16;2.50;;;2.30;;
37483;SDS011;23337;52.212;9.926;2023-07-29T11:51:42;3.03;;;2.30;;
37483;SDS011;23337;52.212;9.926;2023-07-29T11:54:08;2.87;;;2.20;;
37483;SDS011;23337;52.212;9.926;2023-07-29T11:56:34;2.00;;;1.80;;
37483;SDS011;23337;52.212;9.926;2023-07-29T11:59:01;1.77;;;1.67;;
37483;SDS011;23337;52.212;9.926;2023-07-29T12:01:27;1.47;;;1.37;;
37483;SDS011;23337;52.212;9.926;2023-07-29T12:03:54;2.60;;;1.50;;
37483;SDS011;23337;52.212;9.926;2023-07-29T12:06:21;2.67;;;1.20;;
37483;SDS011;23337;52.212;9.926;2023-07-29T12:08:49;0.60;;;0.60;;
37483;SDS011;23337;52.212;9.926;2023-07-29T12:11:15;0.90;;;0.80;;
37483;SDS011;23337;52.212;9.926;2023-07-29T12:13:41;1.60;;;1.20;;
37483;SDS011;23337;52.212;9.926;2023-07-29T12:16:07;0.90;;;0.90;;
37483;SDS011;23337;52.212;9.926;2023-07-29T12:18:33;1.13;;;1.00;;
37483;SDS011;23337;52.212;9.926;2023-07-29T12:20:59;3.23;;;0.90;;
37483;SDS011;23337;52.212;9.926;2023-07-29T12:23:25;0.83;;;0.80;;
37483;SDS011;23337;52.212;9.926;2023-07-29T12:25:56;1.60;;;0.70;;
37483;SDS011;23337;52.212;9.926;2023-07-29T12:28:22;0.93;;;0.90;;
37483;SDS011;23337;52.212;9.926;2023-07-29T12:30:52;0.80;;;0.80;;
37483;SDS011;23337;52.212;9.926;2023-07-29T12:33:31;0.87;;;0.60;;
37483;SDS011;23337;52.212;9.926;2023-07-29T12:35:57;1.20;;;0.80;;
37483;SDS011;23337;52.212;9.926;2023-07-29T12:38:25;0.70;;;0.70;;
37483;SDS011;23337;52.212;9.926;2023-07-29T12:40:51;0.50;;;0.50;;
37483;SDS011;23337;52.212;9.926;2023-07-29T12:43:17;1.10;;;0.80;;
37483;SDS011;23337;52.212;9.926;2023-07-29T12:45:43;1.90;;;0.80;;
37483;SDS011;23337;52.212;9.926;2023-07-29T12:48:09;1.37;;;0.70;;
37483;SDS011;23337;52.212;9.926;2023-07-29T12:50:35;2.27;;;0.63;;
37483;SDS011;23337;52.212;9.926;2023-07-29T12:53:02;0.60;;;0.60;;
37483;SDS011;23337;52.212;9.926;2023-07-29T12:55:28;0.93;;;0.63;;
37483;SDS011;23337;52.212;9.926;2023-07-29T12:57:53;1.43;;;0.57;;
37483;SDS011;23337;52.212;9.926;2023-07-29T13:00:19;1.50;;;0.80;;
37483;SDS011;23337;52.212;9.926;2023-07-29T13:02:45;0.50;;;0.50;;
37483;SDS011;23337;52.212;9.926;2023-07-29T13:05:12;1.17;;;0.60;;
37483;SDS011;23337;52.212;9.926;2023-07-29T13:07:42;0.97;;;0.70;;
37483;SDS011;23337;52.212;9.926;2023-07-29T13:10:11;1.23;;;0.83;;
37483;SDS011;23337;52.212;9.926;2023-07-29T13:12:38;0.60;;;0.60;;
37483;SDS011;23337;52.212;9.926;2023-07-29T13:15:04;0.77;;;0.60;;
37483;SDS011;23337;52.212;9.926;2023-07-29T13:17:30;0.90;;;0.70;;
37483;SDS011;23337;52.212;9.926;2023-07-29T13:19:56;0.70;;;0.70;;
37483;SDS011;23337;52.212;9.926;2023-07-29T13:22:22;0.83;;;0.70;;
37483;SDS011;23337;52.212;9.926;2023-07-29T13:24:48;1.20;;;0.77;;
37483;SDS011;23337;52.212;9.926;2023-07-29T13:27:14;0.97;;;0.50;;
37483;SDS011;23337;52.212;9.926;2023-07-29T13:29:40;1.00;;;0.80;;
37483;SDS011;23337;52.212;9.926;2023-07-29T13:32:06;0.60;;;0.60;;
37483;SDS011;23337;52.212;9.926;2023-07-29T13:34:32;0.80;;;0.57;;
37483;SDS011;23337;52.212;9.926;2023-07-29T13:36:59;0.47;;;0.47;;
37483;SDS011;23337;52.212;9.926;2023-07-29T13:39:25;0.57;;;0.57;;
37483;SDS011;23337;52.212;9.926;2023-07-29T13:41:52;0.53;;;0.53;;
37483;SDS011;23337;52.212;9.926;2023-07-29T13:44:18;0.73;;;0.60;;
37483;SDS011;23337;52.212;9.926;2023-07-29T13:46:44;0.60;;;0.60;;
37483;SDS011;23337;52.212;9.926;2023-07-29T13:49:10;0.50;;;0.50;;
37483;SDS011;23337;52.212;9.926;2023-07-29T13:51:36;0.70;;;0.70;;
37483;SDS011;23337;52.212;9.926;2023-07-29T13:54:02;0.47;;;0.47;;
37483;SDS011;23337;52.212;9.926;2023-07-29T13:56:28;1.07;;;0.63;;
37483;SDS011;23337;52.212;9.926;2023-07-29T13:58:54;0.80;;;0.70;;
37483;SDS011;23337;52.212;9.926;2023-07-29T14:01:20;0.60;;;0.60;;
37483;SDS011;23337;52.212;9.926;2023-07-29T14:03:46;0.53;;;0.53;;
37483;SDS011;23337;52.212;9.926;2023-07-29T14:06:12;0.93;;;0.70;;
37483;SDS011;23337;52.212;9.926;2023-07-29T14:08:38;1.23;;;0.87;;
37483;SDS011;23337;52.212;9.926;2023-07-29T14:11:06;1.73;;;0.60;;
37483;SDS011;23337;52.212;9.926;2023-07-29T14:13:32;0.90;;;0.80;;
37483;SDS011;23337;52.212;9.926;2023-07-29T14:16:00;0.70;;;0.70;;
37483;SDS011;23337;52.212;9.926;2023-07-29T14:18:27;1.77;;;0.70;;
37483;SDS011;23337;52.212;9.926;2023-07-29T14:20:53;0.63;;;0.50;;
37483;SDS011;23337;52.212;9.926;2023-07-29T14:23:19;0.90;;;0.63;;
37483;SDS011;23337;52.212;9.926;2023-07-29T14:25:45;1.70;;;1.60;;
37483;SDS011;23337;52.212;9.926;2023-07-29T14:28:12;0.40;;;0.40;;
37483;SDS011;23337;52.212;9.926;2023-07-29T14:30:38;0.83;;;0.70;;
37483;SDS011;23337;52.212;9.926;2023-07-29T14:33:06;0.97;;;0.87;;
37483;SDS011;23337;52.212;9.926;2023-07-29T14:35:31;0.97;;;0.60;;
37483;SDS011;23337;52.212;9.926;2023-07-29T14:37:57;0.83;;;0.73;;
37483;SDS011;23337;52.212;9.926;2023-07-29T14:40:23;1.37;;;0.70;;
37483;SDS011;23337;52.212;9.926;2023-07-29T14:42:49;0.60;;;0.60;;
37483;SDS011;23337;52.212;9.926;2023-07-29T14:45:15;1.63;;;0.70;;
37483;SDS011;23337;52.212;9.926;2023-07-29T14:47:41;1.80;;;0.60;;
37483;SDS011;23337;52.212;9.926;2023-07-29T14:50:07;0.77;;;0.70;;
37483;SDS011;23337;52.212;9.926;2023-07-29T14:52:33;1.23;;;0.67;;
37483;SDS011;23337;52.212;9.926;2023-07-29T14:54:59;1.37;;;0.60;;
37483;SDS011;23337;52.212;9.926;2023-07-29T14:57:25;1.67;;;0.90;;
37483;SDS011;23337;52.212;9.926;2023-07-29T14:59:51;0.57;;;0.57;;